Time;durP1;ratioP1;P1;durP2;ratioP2;P2;SDS_P1;SDS_P2;PMS_P1;PMS_P2;Temp;Humidity;BMP_temperature;BMP_pressure;BME280_temperature;BME280_humidity;BME280_pressure;Samples;Min_cycle;Max_cycle;Signal;HPM_P1;HPM_P2
2023/07/15 00:22:41;;;;;;;14.77;10.90;;;14.80;99.90;;;;;;5930168;23;20871;-86
2023/07/15 00:47:38;;;;;;;11.07;9.97;;;15.10;99.90;;;;;;5551443;25;20739;-85
2023/07/15 01:13:27;;;;;;;11.67;10.47;;;15.60;99.90;;;;;;5718027;24;20248;-84
2023/07/15 01:33:15;;;;;;;16.00;12.40;;;15.30;99.90;;;;;;5612947;24;20639;-85
2023/07/15 01:58:29;;;;;;;18.87;14.23;;;15.70;99.90;;;;;;5495506;25;20569;-84
2023/07/15 02:59:24;;;;;;;15.27;13.63;;;15.30;99.90;;;;;;5774757;24;20343;-86
2023/07/15 03:25:09;;;;;;;15.60;14.00;;;15.90;99.90;;;;;;5759814;24;20685;-86
2023/07/15 04:00:43;;;;;;;13.47;12.17;;;15.80;99.90;;;;;;5832992;24;20173;-82
2023/07/15 04:31:17;;;;;;;13.80;12.40;;;16.70;99.90;;;;;;5693339;24;20199;-83
2023/07/15 04:56:38;;;;;;;14.93;13.37;;;17.70;99.90;;;;;;5630831;25;20294;-83
2023/07/15 05:26:50;;;;;;;10.80;9.70;;;19.40;98.00;;;;;;5641374;24;20254;-85
2023/07/15 05:52:20;;;;;;;8.85;6.93;;;21.20;86.50;;;;;;5809007;24;20254;-83
2023/07/15 06:22:11;;;;;;;5.85;5.18;;;22.80;79.40;;;;;;5885690;23;20643;-85
2023/07/15 07:23:25;;;;;;;6.05;4.65;;;25.20;61.70;;;;;;5797133;24;20434;-85
2023/07/15 07:54:07;;;;;;;6.55;4.35;;;26.20;60.70;;;;;;5694047;24;20191;-85
2023/07/15 08:14:25;;;;;;;4.45;3.60;;;26.30;58.60;;;;;;5714312;24;20184;-83
2023/07/15 08:54:49;;;;;;;6.60;3.67;;;27.60;54.60;;;;;;5884851;24;20251;-82
2023/07/15 09:15:09;;;;;;;8.20;3.20;;;27.80;52.80;;;;;;5909650;24;20211;-85
2023/07/15 09:44:54;;;;;;;3.13;2.92;;;28.40;51.70;;;;;;5903515;23;20191;-83
2023/07/15 10:05:13;;;;;;;4.75;3.70;;;28.60;51.30;;;;;;5851244;24;20351;-84
2023/07/15 10:40:50;;;;;;;5.00;3.75;;;28.50;51.70;;;;;;5940611;23;20187;-85
2023/07/15 11:11:34;;;;;;;6.43;4.55;;;28.60;51.60;;;;;;5978453;23;20193;-83
2023/07/15 11:37:07;;;;;;;6.25;3.67;;;29.60;50.70;;;;;;5778828;24;20304;-82
2023/07/15 13:22:55;;;;;;;3.28;3.08;;;33.50;44.90;;;;;;5739234;24;20191;-86
2023/07/15 13:38:53;;;;;;;3.30;3.00;;;33.60;44.60;;;;;;5875972;24;20229;-82
2023/07/15 13:59:02;;;;;;;4.10;3.45;;;33.60;44.70;;;;;;5715417;24;20408;-86
2023/07/15 14:29:33;;;;;;;3.10;2.88;;;39.20;45.20;;;;;;5648547;24;20572;-85
2023/07/15 15:04:47;;;;;;;5.22;3.03;;;38.80;43.60;;;;;;5727070;24;20231;-85
2023/07/15 15:40:30;;;;;;;3.00;2.80;;;40.20;43.10;;;;;;5916622;23;20292;-85
2023/07/15 16:05:27;;;;;;;3.05;2.75;;;37.70;42.90;;;;;;6008892;23;20572;-85
2023/07/15 16:26:07;;;;;;;3.60;3.17;;;32.70;42.60;;;;;;5708977;24;20167;-85
2023/07/15 16:51:30;;;;;;;3.80;3.50;;;30.50;44.20;;;;;;5760424;24;20280;-86
2023/07/15 17:22:00;;;;;;;4.45;3.33;;;29.60;46.70;;;;;;5919499;23;20222;-85
2023/07/15 17:57:23;;;;;;;4.82;4.07;;;27.80;51.40;;;;;;6001709;23;20847;-86
2023/07/15 18:22:26;;;;;;;4.28;3.90;;;26.30;52.50;;;;;;5817018;24;20633;-87
2023/07/15 18:47:55;;;;;;;7.25;4.90;;;25.00;66.10;;;;;;5687194;24;20280;-84
2023/07/15 20:14:25;;;;;;;7.82;6.60;;;21.90;91.20;;;;;;5741371;24;20194;-86
2023/07/15 20:18:45;;;;;;;7.97;7.00;;;21.80;91.40;;;;;;5740064;24;20641;-86
2023/07/15 20:39:25;;;;;;;11.57;8.70;;;21.40;92.90;;;;;;5588132;25;20268;-87
2023/07/15 21:34:58;;;;;;;9.70;8.70;;;21.10;94.60;;;;;;5505640;25;20277;-85
2023/07/15 22:10:52;;;;;;;11.00;9.90;;;20.30;98.30;;;;;;5508945;25;20210;-86
2023/07/15 23:41:09;;;;;;;13.43;12.07;;;19.00;99.90;;;;;;5576037;25;20336;-85
